createdAt,value
2023-10-06T00:02:56.967Z,162574.19
2023-10-06T00:06:03.885Z,162570.25
2023-10-06T00:09:08.443Z,162563.69
2023-10-06T00:12:14.628Z,162572.84
2023-10-06T00:15:27.666Z,162566.34
2023-10-06T00:18:37.091Z,162566.34
2023-10-06T00:21:45.814Z,162563.69
2023-10-06T00:25:00.209Z,162567.63
2023-10-06T00:28:07.884Z,162554.56
2023-10-06T00:31:13.008Z,162567.63
2023-10-06T00:34:23.399Z,162557.13
2023-10-06T00:37:27.270Z,162555.81
2023-10-06T00:40:31.322Z,162554.56
2023-10-06T00:43:40.356Z,162547.97
2023-10-06T00:46:44.717Z,162546.63
2023-10-06T00:49:49.688Z,162541.41
2023-10-06T00:52:56.991Z,162549.31
2023-10-06T00:56:04.490Z,162547.97
2023-10-06T00:59:09.312Z,162534.84
2023-10-06T01:02:15.981Z,162533.56
2023-10-06T01:05:20.763Z,162540.13
2023-10-06T01:08:25.059Z,162542.69
2023-10-06T01:11:29.326Z,162521.75
2023-10-06T01:14:36.084Z,162525.75
2023-10-06T01:17:40.506Z,162545.34
2023-10-06T01:20:44.518Z,162537.53
2023-10-06T01:23:48.508Z,162533.56
2023-10-06T01:27:01.085Z,162540.13
2023-10-06T01:30:17.667Z,162545.34
2023-10-06T01:33:22.161Z,162540.13
2023-10-06T01:36:27.528Z,162525.75
2023-10-06T01:39:33.785Z,162533.56
2023-10-06T01:42:37.829Z,162540.13
2023-10-06T01:45:47.905Z,162525.75
2023-10-06T01:48:51.828Z,162530.91
2023-10-06T01:52:08.237Z,162521.75
2023-10-06T01:55:13.859Z,162523.06
2023-10-06T01:58:18.015Z,162524.41
2023-10-06T02:01:22.503Z,162521.75
2023-10-06T02:04:26.736Z,162519.13
2023-10-06T02:07:31.391Z,162509.97
2023-10-06T02:10:35.721Z,162512.56
2023-10-06T02:13:40.096Z,162507.34
2023-10-06T02:16:45.617Z,162499.47
2023-10-06T02:19:49.561Z,162492.91
2023-10-06T02:22:54.408Z,162478.53
2023-10-06T02:25:58.539Z,162451.03
2023-10-06T02:29:03.532Z,162440.47
2023-10-06T02:32:10.412Z,162437.88
2023-10-06T02:35:14.688Z,162433.97
2023-10-06T02:38:18.805Z,162422.09
2023-10-06T02:41:28.149Z,162420.88
2023-10-06T02:44:37.650Z,162418.19
2023-10-06T02:47:41.918Z,162423.44
2023-10-06T02:50:50.298Z,162420.88
2023-10-06T02:54:00.289Z,162426.03
2023-10-06T02:57:06.230Z,162415.59
2023-10-06T03:00:19.832Z,162419.53
2023-10-06T03:03:34.656Z,162416.91
2023-10-06T03:06:39.013Z,162414.25
2023-10-06T03:09:49.211Z,162405.16
2023-10-06T03:12:54.141Z,162382.81
2023-10-06T03:15:58.619Z,162381.50
2023-10-06T03:19:02.844Z,162389.38
2023-10-06T03:22:07.802Z,162390.72
2023-10-06T03:25:18.672Z,162369.72
2023-10-06T03:28:44.051Z,162350.06
2023-10-06T03:31:47.845Z,162338.28
2023-10-06T03:34:52.478Z,162339.56
2023-10-06T03:38:15.257Z,162319.91
2023-10-06T03:41:20.199Z,162289.75
2023-10-06T03:44:28.110Z,162271.44
2023-10-06T03:47:31.998Z,162268.78
2023-10-06T03:50:41.141Z,162260.94
2023-10-06T03:53:49.981Z,162247.84
2023-10-06T03:56:55.072Z,162236.06
2023-10-06T03:59:59.429Z,162221.63
2023-10-06T04:03:04.952Z,162222.91
2023-10-06T04:06:13.994Z,162226.84
2023-10-06T04:09:28.136Z,162205.88
2023-10-06T04:12:35.309Z,162207.19
2023-10-06T04:15:40.120Z,162207.19
2023-10-06T04:18:48.964Z,162198.03
2023-10-06T04:21:53.605Z,162190.16
2023-10-06T04:24:57.815Z,162198.03
2023-10-06T04:28:01.960Z,162208.53
2023-10-06T04:31:08.901Z,162219.03
2023-10-06T04:34:12.728Z,162213.81
2023-10-06T04:37:18.113Z,162228.19
2023-10-06T04:40:22.981Z,162234.78
2023-10-06T04:43:27.216Z,162243.91
2023-10-06T04:46:31.397Z,162258.34
2023-10-06T04:49:35.290Z,162259.66
2023-10-06T04:52:40.454Z,162259.66
2023-10-06T04:55:44.860Z,162266.22
2023-10-06T04:58:49.068Z,162276.66
2023-10-06T05:01:54.269Z,162281.94
2023-10-06T05:04:58.271Z,162279.31
2023-10-06T05:08:03.201Z,162283.25
2023-10-06T05:11:09.660Z,162287.16
2023-10-06T05:14:17.809Z,162284.53
2023-10-06T05:17:23.022Z,162289.75
2023-10-06T05:20:32.086Z,162292.41
2023-10-06T05:23:36.388Z,162295.03
2023-10-06T05:26:40.599Z,162293.69
2023-10-06T05:29:45.008Z,162285.81
2023-10-06T05:32:49.553Z,162289.75
2023-10-06T05:35:54.203Z,162304.19
2023-10-06T05:38:58.845Z,162313.41
2023-10-06T05:42:05.840Z,162317.31
2023-10-06T05:45:16.796Z,162331.69
2023-10-06T05:48:24.322Z,162333.00
2023-10-06T05:51:30.133Z,162318.56
2023-10-06T05:54:36.632Z,162336.94
2023-10-06T05:57:49.475Z,162331.69
2023-10-06T06:00:57.142Z,162336.94
2023-10-06T06:04:09.905Z,162333.00
2023-10-06T06:07:15.155Z,162348.72
2023-10-06T06:10:20.301Z,162331.69
2023-10-06T06:13:24.413Z,162350.06
2023-10-06T06:16:29.164Z,162329.13
2023-10-06T06:19:34.845Z,162350.06
2023-10-06T06:22:41.294Z,162348.72
2023-10-06T06:25:45.707Z,162314.69
2023-10-06T06:28:50.026Z,162289.75
2023-10-06T06:31:54.273Z,162283.25
2023-10-06T06:34:58.827Z,162264.88
2023-10-06T06:38:08.101Z,162266.22
2023-10-06T06:41:12.588Z,162287.16
2023-10-06T06:44:16.965Z,162309.47
2023-10-06T06:47:22.011Z,162339.56
2023-10-06T06:50:26.272Z,162356.59
2023-10-06T06:53:30.650Z,162354.00
2023-10-06T06:56:34.767Z,162369.72
2023-10-06T06:59:40.183Z,162365.78
2023-10-06T07:02:48.582Z,162364.44
2023-10-06T07:05:55.983Z,162377.56
2023-10-06T07:09:01.001Z,162394.59
2023-10-06T07:12:05.331Z,162407.72
2023-10-06T07:15:16.230Z,162441.81
2023-10-06T07:18:20.819Z,162454.91
2023-10-06T07:21:25.075Z,162471.91
2023-10-06T07:24:29.301Z,162490.31
2023-10-06T07:27:35.727Z,162499.47
2023-10-06T07:30:40.195Z,162544.03
2023-10-06T07:33:53.386Z,162568.97
2023-10-06T07:36:57.614Z,162578.13
2023-10-06T07:40:05.271Z,162596.47
2023-10-06T07:43:10.952Z,162617.44
2023-10-06T07:46:17.224Z,162616.16
2023-10-06T07:49:21.546Z,162641.09
2023-10-06T07:52:25.552Z,162656.78
2023-10-06T07:55:29.725Z,162714.47
2023-10-06T07:58:42.494Z,162738.09
2023-10-06T08:01:46.863Z,162764.31
2023-10-06T08:04:52.482Z,162790.56
2023-10-06T08:07:58.299Z,162785.28
2023-10-06T08:11:03.535Z,162799.75
2023-10-06T08:14:08.093Z,162837.72
2023-10-06T08:17:12.845Z,162827.25
2023-10-06T08:20:17.518Z,162846.94
2023-10-06T08:23:21.833Z,162867.91
2023-10-06T08:26:26.232Z,162892.81
2023-10-06T08:29:31.424Z,162900.72
2023-10-06T08:32:35.686Z,162908.56
2023-10-06T08:35:41.637Z,162930.84
2023-10-06T08:38:48.072Z,162965.00
2023-10-06T08:41:55.584Z,163014.84
2023-10-06T08:44:59.841Z,163034.53
2023-10-06T08:48:10.740Z,163072.59
2023-10-06T08:51:18.464Z,163121.09
2023-10-06T08:54:23.442Z,163143.41
2023-10-06T08:57:31.563Z,163161.84
2023-10-06T09:00:38.209Z,163188.03
2023-10-06T09:03:42.415Z,163181.47
2023-10-06T09:07:08.185Z,163197.22
2023-10-06T09:10:18.654Z,163197.22
2023-10-06T09:13:23.366Z,163201.19
2023-10-06T09:16:48.910Z,163235.28
2023-10-06T09:19:52.941Z,163261.56
2023-10-06T09:22:57.478Z,163265.47
2023-10-06T09:26:03.858Z,163260.22
2023-10-06T09:29:11.112Z,163289.06
2023-10-06T09:32:23.211Z,163296.97
2023-10-06T09:35:28.304Z,163291.69
2023-10-06T09:38:33.731Z,163272.03
2023-10-06T09:41:39.354Z,163278.53
2023-10-06T09:44:47.026Z,163249.72
2023-10-06T09:47:57.699Z,163249.72
2023-10-06T09:51:07.222Z,163281.22
2023-10-06T09:54:12.486Z,163237.91
2023-10-06T09:57:17.581Z,163222.16
2023-10-06T10:00:22.497Z,163211.69
2023-10-06T10:03:27.157Z,163248.44
2023-10-06T10:06:31.623Z,163299.59
2023-10-06T10:09:37.098Z,163335.03
2023-10-06T10:12:48.931Z,163384.94
2023-10-06T10:15:56.018Z,163370.44
2023-10-06T10:19:08.525Z,163367.84
2023-10-06T10:22:14.821Z,163366.50
2023-10-06T10:25:25.183Z,163370.44
2023-10-06T10:28:31.747Z,163380.97
2023-10-06T10:31:57.561Z,163408.53
2023-10-06T10:35:13.815Z,163417.72
2023-10-06T10:38:18.574Z,163424.25
2023-10-06T10:41:27.188Z,163445.28
2023-10-06T10:44:31.255Z,163459.72
2023-10-06T10:47:38.320Z,163476.81
2023-10-06T10:50:58.688Z,163518.78
2023-10-06T10:54:02.941Z,163548.97
2023-10-06T10:57:10.691Z,163558.19
2023-10-06T11:00:15.504Z,163520.06
2023-10-06T11:03:21.144Z,163520.06
2023-10-06T11:06:25.228Z,163514.91
2023-10-06T11:09:36.075Z,163489.94
2023-10-06T11:12:39.882Z,163478.13
2023-10-06T11:15:43.840Z,163499.09
2023-10-06T11:18:48.714Z,163529.28
2023-10-06T11:21:54.595Z,163538.50
2023-10-06T11:25:04.089Z,163518.78
2023-10-06T11:28:13.627Z,163538.50
2023-10-06T11:31:18.208Z,163545.03
2023-10-06T11:34:22.201Z,163556.91
2023-10-06T11:37:30.209Z,163564.75
2023-10-06T11:40:36.645Z,163573.94
2023-10-06T11:43:40.691Z,163572.66
2023-10-06T11:46:52.057Z,163558.19
2023-10-06T11:50:01.854Z,163538.50
2023-10-06T11:53:20.376Z,163529.28
2023-10-06T11:56:24.604Z,163538.50
2023-10-06T11:59:30.387Z,163548.97
2023-10-06T12:02:45.696Z,163567.38
2023-10-06T12:05:59.177Z,163614.66
2023-10-06T12:09:04.009Z,163642.22
2023-10-06T12:12:09.150Z,163669.75
2023-10-06T12:15:17.077Z,163688.22
2023-10-06T12:18:25.320Z,163686.88
2023-10-06T12:21:31.015Z,163652.75
2023-10-06T12:24:35.460Z,163651.44
2023-10-06T12:27:45.956Z,163643.56
2023-10-06T12:30:50.491Z,163626.47
2023-10-06T12:33:58.313Z,163638.28
2023-10-06T12:37:05.249Z,163644.81
2023-10-06T12:40:10.293Z,163697.41
2023-10-06T12:43:15.160Z,163756.53
2023-10-06T12:46:20.373Z,163774.84
2023-10-06T12:49:25.450Z,163780.09
2023-10-06T12:52:30.426Z,163767.00
2023-10-06T12:55:35.967Z,163749.88
2023-10-06T12:58:40.154Z,163746.00
2023-10-06T13:01:44.332Z,163738.06
2023-10-06T13:04:49.554Z,163738.06
2023-10-06T13:07:53.961Z,163751.22
2023-10-06T13:10:58.434Z,163744.66
2023-10-06T13:14:05.230Z,163757.75
2023-10-06T13:17:10.721Z,163755.19
2023-10-06T13:20:15.305Z,163759.09
2023-10-06T13:23:19.220Z,163764.38
2023-10-06T13:26:35.863Z,163764.38
2023-10-06T13:29:45.023Z,163770.91
2023-10-06T13:32:53.682Z,163773.56
2023-10-06T13:35:59.209Z,163790.56
2023-10-06T13:39:10.599Z,163782.72
2023-10-06T13:42:16.609Z,163780.09
2023-10-06T13:45:23.592Z,163757.75
2023-10-06T13:48:27.930Z,163755.19
2023-10-06T13:51:32.117Z,163742.03
2023-10-06T13:54:37.899Z,163735.47
2023-10-06T13:57:43.355Z,163722.34
2023-10-06T14:00:48.058Z,163743.38
2023-10-06T14:03:53.192Z,163743.38
2023-10-06T14:06:57.373Z,163747.28
2023-10-06T14:10:01.903Z,163752.56
2023-10-06T14:13:09.782Z,163767.00
2023-10-06T14:16:19.673Z,163799.81
2023-10-06T14:19:23.617Z,163814.25
2023-10-06T14:22:31.620Z,163816.88
2023-10-06T14:25:36.528Z,163822.16
2023-10-06T14:28:41.332Z,163839.22
2023-10-06T14:32:10.658Z,163856.34
2023-10-06T14:35:25.294Z,163853.66
2023-10-06T14:38:36.617Z,163810.34
2023-10-06T14:41:56.358Z,163806.41
2023-10-06T14:45:18.900Z,163801.16
2023-10-06T14:48:28.431Z,163806.41
2023-10-06T14:51:36.227Z,163798.53
2023-10-06T14:54:41.369Z,163786.66
2023-10-06T14:57:47.128Z,163767.00
2023-10-06T15:00:51.065Z,163769.56
2023-10-06T15:04:03.158Z,163753.84
2023-10-06T15:10:43.255Z,163742.03
2023-10-06T15:13:48.947Z,163736.75
2023-10-06T15:17:00.560Z,163714.44
2023-10-06T15:20:05.857Z,163717.06
2023-10-06T15:23:14.192Z,163715.72
2023-10-06T15:26:24.579Z,163722.34
2023-10-06T15:29:29.324Z,163706.59
2023-10-06T15:32:33.559Z,163711.81
2023-10-06T15:35:37.811Z,163688.22
2023-10-06T15:38:48.558Z,163657.94
2023-10-06T15:41:52.750Z,163648.81
2023-10-06T15:44:58.524Z,163640.91
2023-10-06T15:48:08.891Z,163619.91
2023-10-06T15:51:14.833Z,163601.53
2023-10-06T15:54:18.961Z,163593.66
2023-10-06T15:57:23.190Z,163572.66
2023-10-06T16:00:27.992Z,163564.75
2023-10-06T16:03:32.150Z,163554.22
2023-10-06T16:06:37.746Z,163534.56
2023-10-06T16:09:41.952Z,163493.84
2023-10-06T16:12:47.842Z,163471.53
2023-10-06T16:16:04.393Z,163451.84
2023-10-06T16:19:15.558Z,163426.91
2023-10-06T16:22:19.899Z,163428.25
2023-10-06T16:25:24.880Z,163417.72
2023-10-06T16:28:29.027Z,163391.44
2023-10-06T16:31:33.672Z,163379.63
2023-10-06T16:34:38.322Z,163356.03
2023-10-06T16:37:44.086Z,163350.75
2023-10-06T16:40:48.126Z,163328.41
2023-10-06T16:43:57.313Z,163308.75
2023-10-06T16:47:03.112Z,163298.31
2023-10-06T16:50:10.970Z,163278.53
2023-10-06T16:53:15.155Z,163262.84
2023-10-06T16:56:20.065Z,163252.31
2023-10-06T16:59:24.533Z,163247.09
2023-10-06T17:02:30.235Z,163235.28
2023-10-06T17:05:36.274Z,163230.00
2023-10-06T17:08:41.473Z,163212.97
2023-10-06T17:11:47.995Z,163206.41
2023-10-06T17:14:55.282Z,163197.22
2023-10-06T17:17:59.575Z,163205.06
2023-10-06T17:21:07.968Z,163197.22
2023-10-06T17:24:12.485Z,163212.97
2023-10-06T17:27:16.997Z,163205.06
2023-10-06T17:30:21.356Z,163211.69
2023-10-06T17:33:25.673Z,163206.41
2023-10-06T17:36:30.796Z,163211.69
2023-10-06T17:39:34.876Z,163198.56
2023-10-06T17:42:48.085Z,163195.91
2023-10-06T17:45:52.693Z,163170.97
2023-10-06T17:48:58.179Z,163168.34
2023-10-06T17:52:02.708Z,163170.97
2023-10-06T17:55:10.033Z,163160.50
2023-10-06T17:58:14.957Z,163147.38
2023-10-06T18:01:20.000Z,163139.47
2023-10-06T18:04:24.324Z,163118.50
2023-10-06T18:07:28.887Z,163111.97
2023-10-06T18:10:33.368Z,163117.16
2023-10-06T18:13:38.620Z,163107.97
2023-10-06T18:16:45.729Z,163121.09
2023-10-06T18:19:50.393Z,163107.97
2023-10-06T18:22:56.220Z,163097.50
2023-10-06T18:26:00.654Z,163098.84
2023-10-06T18:29:05.367Z,163110.63
2023-10-06T18:32:09.682Z,163115.88
2023-10-06T18:35:14.631Z,163100.06
2023-10-06T18:38:19.116Z,163093.56
2023-10-06T18:41:27.527Z,163076.47
2023-10-06T18:44:31.784Z,163068.63
2023-10-06T18:47:36.961Z,163068.63
2023-10-06T18:50:41.167Z,163047.66
2023-10-06T18:53:45.669Z,163042.38
2023-10-06T18:56:50.039Z,163035.81
2023-10-06T18:59:54.432Z,163024.03
2023-10-06T19:02:58.699Z,163026.63
2023-10-06T19:06:05.132Z,163017.47
2023-10-06T19:09:16.022Z,163014.84
2023-10-06T19:12:20.172Z,163012.22
2023-10-06T19:15:24.575Z,163008.28
2023-10-06T19:18:30.309Z,162995.19
2023-10-06T19:21:34.557Z,163003.03
2023-10-06T19:24:40.576Z,162997.75
2023-10-06T19:27:44.995Z,162991.25
2023-10-06T19:30:59.189Z,162989.91
2023-10-06T19:34:03.329Z,162983.34
2023-10-06T19:37:09.179Z,163000.38
2023-10-06T19:40:13.890Z,162966.34
2023-10-06T19:43:21.507Z,162975.47
2023-10-06T19:46:25.602Z,162967.63
2023-10-06T19:49:29.931Z,162958.38
2023-10-06T19:52:35.375Z,162947.94
2023-10-06T19:55:40.635Z,162938.75
2023-10-06T19:58:45.685Z,162950.53
2023-10-06T20:01:49.997Z,162947.94
2023-10-06T20:04:54.427Z,162933.47
2023-10-06T20:07:58.473Z,162933.47
2023-10-06T20:11:02.740Z,162936.13
2023-10-06T20:14:08.260Z,162932.19
2023-10-06T20:17:16.052Z,162938.75
2023-10-06T20:20:23.666Z,162926.97
2023-10-06T20:23:27.842Z,162929.56
2023-10-06T20:26:32.734Z,162923.00
2023-10-06T20:29:36.707Z,162929.56
2023-10-06T20:32:41.314Z,162933.47
2023-10-06T20:35:45.643Z,162951.88
2023-10-06T20:38:49.905Z,162971.50
2023-10-06T20:41:54.053Z,162979.41
2023-10-06T20:44:58.354Z,162967.63
2023-10-06T20:48:06.827Z,162966.34
2023-10-06T20:51:17.686Z,162979.41
2023-10-06T20:54:21.822Z,162958.38
2023-10-06T20:57:28.299Z,162951.88
2023-10-06T21:00:32.785Z,162949.25
2023-10-06T21:03:37.154Z,162953.22
2023-10-06T21:06:41.163Z,162958.38
2023-10-06T21:09:46.850Z,162963.66
2023-10-06T21:12:50.946Z,162958.38
2023-10-06T21:15:55.090Z,162963.66
2023-10-06T21:18:59.638Z,162971.50
2023-10-06T21:22:04.743Z,162958.38
2023-10-06T21:25:18.178Z,162974.19
2023-10-06T21:28:23.849Z,162974.19
2023-10-06T21:31:28.033Z,162979.41
2023-10-06T21:34:32.084Z,162992.53
2023-10-06T21:37:36.113Z,162987.25
2023-10-06T21:40:40.601Z,163001.72
2023-10-06T21:43:44.972Z,162996.47
2023-10-06T21:46:49.375Z,162996.47
2023-10-06T21:49:54.038Z,163014.84
2023-10-06T21:52:58.257Z,163020.13
2023-10-06T21:56:13.049Z,163013.50
2023-10-06T21:59:17.380Z,163013.50
2023-10-06T22:02:22.583Z,163013.50
2023-10-06T22:05:26.741Z,163024.03
2023-10-06T22:08:31.397Z,163014.84
2023-10-06T22:11:35.555Z,163014.84
2023-10-06T22:14:39.815Z,163012.22
2023-10-06T22:17:44.121Z,163001.72
2023-10-06T22:20:48.437Z,162987.25
2023-10-06T22:23:52.865Z,162984.63
2023-10-06T22:27:00.277Z,162982.06
2023-10-06T22:30:04.713Z,162987.25
2023-10-06T22:33:08.824Z,162972.84
2023-10-06T22:36:15.520Z,162961.06
2023-10-06T22:39:20.526Z,162955.81
2023-10-06T22:42:24.831Z,162957.09
2023-10-06T22:45:29.367Z,162954.50
2023-10-06T22:48:34.669Z,162937.41
2023-10-06T22:51:39.147Z,162950.53
2023-10-06T22:54:46.297Z,162955.81
2023-10-06T22:57:51.411Z,162946.59
2023-10-06T23:00:55.311Z,162950.53
2023-10-06T23:03:59.492Z,162950.53
2023-10-06T23:07:04.026Z,162938.75
2023-10-06T23:10:09.164Z,162932.19
2023-10-06T23:13:14.703Z,162924.34
2023-10-06T23:16:19.495Z,162921.69
2023-10-06T23:19:23.917Z,162909.91
2023-10-06T23:22:28.982Z,162907.28
2023-10-06T23:25:50.657Z,162916.50
2023-10-06T23:28:56.104Z,162913.84
2023-10-06T23:32:00.277Z,162907.28
2023-10-06T23:35:05.001Z,162920.41
2023-10-06T23:38:12.828Z,162903.38
2023-10-06T23:41:18.807Z,162908.56
2023-10-06T23:44:22.748Z,162903.38
2023-10-06T23:47:29.901Z,162899.44
2023-10-06T23:50:35.036Z,162877.13
2023-10-06T23:53:41.690Z,162878.41
2023-10-06T23:56:48.473Z,162875.78
2023-10-06T23:59:52.579Z,162871.84
